Time;durP1;ratioP1;P1;durP2;ratioP2;P2;SDS_P1;SDS_P2;PMS_P1;PMS_P2;Temp;Humidity;BMP_temperature;BMP_pressure;BME280_temperature;BME280_humidity;BME280_pressure;Samples;Min_cycle;Max_cycle;Signal;HPM_P1;HPM_P2
2022/03/02 00:00:15;;;;;;;34.30;23.08;;;;;;;;;;5073730;28;20127;-64
2022/03/02 00:02:44;;;;;;;33.58;23.45;;;;;;;;;;5073154;28;20040;-65
2022/03/02 00:05:10;;;;;;;34.70;23.23;;;;;;;;;;5073006;28;20503;-65
2022/03/02 00:07:37;;;;;;;34.42;23.02;;;;;;;;;;5055605;28;20089;-66
2022/03/02 00:10:04;;;;;;;36.05;23.50;;;;;;;;;;5073308;28;20476;-66
2022/03/02 00:12:30;;;;;;;31.48;23.48;;;;;;;;;;5073389;28;20310;-64
2022/03/02 00:14:56;;;;;;;34.50;23.65;;;;;;;;;;5073767;28;20120;-65
2022/03/02 00:17:22;;;;;;;33.58;23.23;;;;;;;;;;5073358;28;20089;-64
2022/03/02 00:19:48;;;;;;;35.38;24.65;;;;;;;;;;5055172;28;20055;-63
2022/03/02 00:22:14;;;;;;;32.90;23.90;;;;;;;;;;5060649;28;20040;-64
2022/03/02 00:24:40;;;;;;;33.17;23.83;;;;;;;;;;5093870;28;20044;-64
2022/03/02 00:27:07;;;;;;;36.67;25.08;;;;;;;;;;5093770;28;20042;-64
2022/03/02 00:29:33;;;;;;;35.97;23.35;;;;;;;;;;5093407;28;20123;-64
2022/03/02 00:31:59;;;;;;;34.30;25.63;;;;;;;;;;5091934;28;20035;-64
2022/03/02 00:34:25;;;;;;;32.72;23.08;;;;;;;;;;5092958;28;20036;-64
2022/03/02 00:36:51;;;;;;;37.05;25.33;;;;;;;;;;5093016;28;20040;-66
2022/03/02 00:39:17;;;;;;;34.75;24.92;;;;;;;;;;5075182;28;20087;-64
2022/03/02 00:41:43;;;;;;;34.80;24.63;;;;;;;;;;5075509;28;20048;-64
2022/03/02 00:44:10;;;;;;;34.28;23.45;;;;;;;;;;5092978;28;20090;-62
2022/03/02 00:46:36;;;;;;;37.90;26.10;;;;;;;;;;5092686;28;20043;-64
2022/03/02 00:49:03;;;;;;;35.17;25.08;;;;;;;;;;5092671;28;20122;-63
2022/03/02 00:51:29;;;;;;;34.45;24.88;;;;;;;;;;5092870;28;20036;-64
2022/03/02 00:53:55;;;;;;;35.85;24.92;;;;;;;;;;5092983;28;20139;-65
2022/03/02 00:56:22;;;;;;;38.45;25.45;;;;;;;;;;5092338;28;20044;-63
2022/03/02 00:58:48;;;;;;;38.05;26.13;;;;;;;;;;5092988;28;20047;-62
2022/03/02 01:01:15;;;;;;;37.03;25.80;;;;;;;;;;5092824;28;20178;-64
2022/03/02 01:03:41;;;;;;;38.05;26.05;;;;;;;;;;5092632;28;20044;-63
2022/03/02 01:06:08;;;;;;;38.03;25.75;;;;;;;;;;5093022;28;20085;-63
2022/03/02 01:08:35;;;;;;;34.33;23.77;;;;;;;;;;5093061;28;20035;-64
2022/03/02 01:11:01;;;;;;;37.50;25.63;;;;;;;;;;5074812;28;20389;-63
2022/03/02 01:13:27;;;;;;;36.72;25.30;;;;;;;;;;5092431;28;20062;-65
2022/03/02 01:15:54;;;;;;;38.63;26.42;;;;;;;;;;5092400;28;20036;-64
2022/03/02 01:18:20;;;;;;;35.63;25.02;;;;;;;;;;5093225;28;20043;-64
2022/03/02 01:20:46;;;;;;;36.05;25.25;;;;;;;;;;5093384;28;20489;-63
2022/03/02 01:23:12;;;;;;;36.17;25.70;;;;;;;;;;5093006;28;20075;-63
2022/03/02 01:25:38;;;;;;;37.08;24.77;;;;;;;;;;5093176;28;20558;-65
2022/03/02 01:28:04;;;;;;;35.72;24.52;;;;;;;;;;5092374;28;20036;-65
2022/03/02 01:30:31;;;;;;;37.70;26.08;;;;;;;;;;5091218;28;20066;-66
2022/03/02 01:32:57;;;;;;;36.38;25.08;;;;;;;;;;5091442;28;20040;-65
2022/03/02 01:35:23;;;;;;;34.88;24.33;;;;;;;;;;5091829;28;20043;-65
2022/03/02 01:37:50;;;;;;;38.63;26.42;;;;;;;;;;5084504;28;20394;-65
2022/03/02 01:40:16;;;;;;;35.38;23.80;;;;;;;;;;5051490;28;20059;-66
2022/03/02 01:42:42;;;;;;;34.95;24.73;;;;;;;;;;5051045;28;20080;-66
2022/03/02 01:45:10;;;;;;;40.05;27.08;;;;;;;;;;5050954;28;20516;-66
2022/03/02 01:47:36;;;;;;;37.20;25.25;;;;;;;;;;5051713;28;20043;-65
2022/03/02 01:50:03;;;;;;;36.90;24.65;;;;;;;;;;5051967;28;20068;-64
2022/03/02 01:52:30;;;;;;;37.13;25.92;;;;;;;;;;5051472;28;20124;-64
2022/03/02 01:54:56;;;;;;;38.55;25.55;;;;;;;;;;5033934;28;20045;-64
2022/03/02 01:57:22;;;;;;;39.60;24.33;;;;;;;;;;5051246;28;20098;-65
2022/03/02 01:59:49;;;;;;;38.72;26.15;;;;;;;;;;5051237;28;20052;-65
2022/03/02 02:02:15;;;;;;;36.85;25.15;;;;;;;;;;5051070;28;20041;-66
2022/03/02 02:04:41;;;;;;;37.00;25.02;;;;;;;;;;5051617;28;20069;-62
2022/03/02 02:07:07;;;;;;;35.03;24.55;;;;;;;;;;5051988;28;20099;-65
2022/03/02 02:09:34;;;;;;;40.03;27.65;;;;;;;;;;5051652;28;20486;-65
2022/03/02 02:12:00;;;;;;;37.88;26.30;;;;;;;;;;5051436;28;20112;-65
2022/03/02 02:14:26;;;;;;;36.25;25.42;;;;;;;;;;5051281;28;20040;-65
2022/03/02 02:16:53;;;;;;;40.67;26.85;;;;;;;;;;5051135;28;20037;-66
2022/03/02 02:19:19;;;;;;;38.45;27.02;;;;;;;;;;5051018;28;20049;-64
2022/03/02 02:21:46;;;;;;;43.53;26.17;;;;;;;;;;5050955;28;20490;-65
2022/03/02 02:24:12;;;;;;;36.28;24.70;;;;;;;;;;5051191;28;20175;-63
2022/03/02 02:26:39;;;;;;;37.60;25.08;;;;;;;;;;5051016;28;20073;-63
2022/03/02 02:29:06;;;;;;;38.78;25.17;;;;;;;;;;5016558;28;20134;-64
2022/03/02 02:31:32;;;;;;;43.00;28.10;;;;;;;;;;5050671;28;20048;-65
2022/03/02 02:33:58;;;;;;;37.35;24.77;;;;;;;;;;5033350;28;20040;-63
2022/03/02 02:36:24;;;;;;;36.38;24.83;;;;;;;;;;5051790;28;20042;-64
2022/03/02 02:38:50;;;;;;;39.20;26.42;;;;;;;;;;5051150;28;20049;-63
2022/03/02 02:41:18;;;;;;;40.13;26.17;;;;;;;;;;5051507;28;20044;-63
2022/03/02 02:43:44;;;;;;;36.22;26.13;;;;;;;;;;5032941;28;20049;-64
2022/03/02 02:46:11;;;;;;;37.55;25.65;;;;;;;;;;5051963;28;20029;-64
2022/03/02 02:48:37;;;;;;;38.70;25.65;;;;;;;;;;5051624;28;20044;-64
2022/03/02 02:51:04;;;;;;;41.90;26.63;;;;;;;;;;5050632;28;20041;-64
2022/03/02 02:53:30;;;;;;;40.05;27.38;;;;;;;;;;5051045;28;20409;-64
2022/03/02 02:55:56;;;;;;;36.00;24.70;;;;;;;;;;5050601;28;20136;-65
2022/03/02 02:58:22;;;;;;;40.08;25.38;;;;;;;;;;5051281;28;20512;-64
2022/03/02 03:00:49;;;;;;;41.05;26.98;;;;;;;;;;5051385;28;20045;-64
2022/03/02 03:03:16;;;;;;;38.95;26.20;;;;;;;;;;5051647;28;20037;-64
2022/03/02 03:05:44;;;;;;;41.60;27.55;;;;;;;;;;5041679;28;20049;-65
2022/03/02 03:08:10;;;;;;;42.35;26.48;;;;;;;;;;5091430;28;20082;-63
2022/03/02 03:10:37;;;;;;;42.65;27.13;;;;;;;;;;5073337;28;20383;-65
2022/03/02 03:13:03;;;;;;;41.22;27.55;;;;;;;;;;5090990;28;20124;-66
2022/03/02 03:15:29;;;;;;;38.50;26.15;;;;;;;;;;5090920;28;20075;-66
2022/03/02 03:17:55;;;;;;;38.85;25.17;;;;;;;;;;5090975;28;20039;-64
2022/03/02 03:20:24;;;;;;;42.22;26.80;;;;;;;;;;5094657;28;20040;-64
2022/03/02 03:22:50;;;;;;;40.47;26.35;;;;;;;;;;5094949;28;20048;-64
2022/03/02 03:25:17;;;;;;;41.38;26.70;;;;;;;;;;5094471;28;20043;-64
2022/03/02 03:27:43;;;;;;;42.15;26.63;;;;;;;;;;5094955;28;20059;-65
2022/03/02 03:30:10;;;;;;;40.13;27.75;;;;;;;;;;5094614;28;20079;-63
2022/03/02 03:32:36;;;;;;;38.28;26.20;;;;;;;;;;5094547;28;20032;-64
2022/03/02 03:35:04;;;;;;;39.80;27.02;;;;;;;;;;5094880;28;20036;-64
2022/03/02 03:37:32;;;;;;;39.42;26.50;;;;;;;;;;5076718;28;20385;-63
2022/03/02 03:39:58;;;;;;;43.38;27.73;;;;;;;;;;5095589;28;20469;-64
2022/03/02 03:42:24;;;;;;;40.60;26.15;;;;;;;;;;5076684;28;20048;-65
2022/03/02 03:44:50;;;;;;;41.83;28.20;;;;;;;;;;5094797;28;20040;-64
2022/03/02 03:47:16;;;;;;;40.58;26.90;;;;;;;;;;5094084;28;20088;-64
2022/03/02 03:49:42;;;;;;;40.17;26.90;;;;;;;;;;5094115;28;20142;-64
2022/03/02 03:52:09;;;;;;;40.63;26.27;;;;;;;;;;5094038;28;20051;-66
2022/03/02 03:54:35;;;;;;;45.25;26.77;;;;;;;;;;5094324;28;20047;-66
2022/03/02 03:57:01;;;;;;;40.92;26.75;;;;;;;;;;5094675;28;20036;-64
2022/03/02 03:59:27;;;;;;;39.67;26.23;;;;;;;;;;5076216;28;20040;-65
2022/03/02 04:01:53;;;;;;;38.78;26.65;;;;;;;;;;5094218;28;20534;-64
2022/03/02 04:04:19;;;;;;;43.95;28.15;;;;;;;;;;5093942;28;20067;-64
2022/03/02 04:06:46;;;;;;;42.65;26.73;;;;;;;;;;5075732;28;20044;-64
2022/03/02 04:09:12;;;;;;;39.92;26.45;;;;;;;;;;5094420;28;20044;-64
2022/03/02 04:11:38;;;;;;;39.60;26.70;;;;;;;;;;5094380;28;20119;-64
2022/03/02 04:14:05;;;;;;;39.60;26.13;;;;;;;;;;5093897;28;20052;-63
2022/03/02 04:16:31;;;;;;;41.00;25.60;;;;;;;;;;5093602;28;20118;-63
2022/03/02 04:18:57;;;;;;;41.08;27.52;;;;;;;;;;5093494;28;20047;-63
2022/03/02 04:21:23;;;;;;;42.03;27.45;;;;;;;;;;5093393;28;20078;-64
2022/03/02 04:23:49;;;;;;;40.70;25.92;;;;;;;;;;5092858;28;20437;-66
2022/03/02 04:26:15;;;;;;;45.80;28.80;;;;;;;;;;5093320;28;20515;-65
2022/03/02 04:28:41;;;;;;;40.60;26.45;;;;;;;;;;5093389;28;20040;-64
2022/03/02 04:31:07;;;;;;;38.53;26.92;;;;;;;;;;5091245;28;20040;-63
2022/03/02 04:33:34;;;;;;;44.80;27.83;;;;;;;;;;5093572;28;20392;-64
2022/03/02 04:36:00;;;;;;;40.20;26.63;;;;;;;;;;5093509;28;20040;-64
2022/03/02 04:38:26;;;;;;;44.67;28.08;;;;;;;;;;5093807;28;20126;-64
2022/03/02 04:40:52;;;;;;;44.63;27.98;;;;;;;;;;5093254;28;20135;-64
2022/03/02 04:43:18;;;;;;;42.00;27.23;;;;;;;;;;5092799;28;20050;-64
2022/03/02 04:45:44;;;;;;;39.92;27.10;;;;;;;;;;5093217;28;20036;-64
2022/03/02 04:48:10;;;;;;;42.08;27.02;;;;;;;;;;5075389;28;20373;-64
2022/03/02 04:50:37;;;;;;;41.90;27.70;;;;;;;;;;5093670;28;20051;-66
2022/03/02 04:53:03;;;;;;;43.25;27.65;;;;;;;;;;5074914;28;20083;-65
2022/03/02 04:55:30;;;;;;;42.25;27.95;;;;;;;;;;5093453;28;20093;-63
2022/03/02 04:57:57;;;;;;;46.70;29.17;;;;;;;;;;5092840;28;20043;-63
2022/03/02 05:00:25;;;;;;;39.78;26.95;;;;;;;;;;5093522;28;20067;-64
2022/03/02 05:02:52;;;;;;;45.60;28.88;;;;;;;;;;5075613;28;20101;-64
2022/03/02 05:05:19;;;;;;;43.60;29.17;;;;;;;;;;5093477;28;20528;-65
2022/03/02 05:07:45;;;;;;;42.72;27.55;;;;;;;;;;5074914;28;20075;-64
2022/03/02 05:10:13;;;;;;;44.72;28.52;;;;;;;;;;5093404;28;20114;-65
2022/03/02 05:12:40;;;;;;;41.20;27.50;;;;;;;;;;5092906;28;20468;-64
2022/03/02 05:15:07;;;;;;;42.45;27.40;;;;;;;;;;5093105;28;20083;-63
2022/03/02 05:17:34;;;;;;;46.47;27.52;;;;;;;;;;5092991;28;20059;-63
2022/03/02 05:20:00;;;;;;;45.08;28.23;;;;;;;;;;5092804;28;20047;-63
2022/03/02 05:22:26;;;;;;;39.58;26.83;;;;;;;;;;5093268;28;20055;-65
2022/03/02 05:24:52;;;;;;;44.55;28.25;;;;;;;;;;5092772;28;20097;-64
2022/03/02 05:27:18;;;;;;;43.50;29.35;;;;;;;;;;5092545;28;20082;-66
2022/03/02 05:29:44;;;;;;;42.85;29.05;;;;;;;;;;5077430;28;20043;-63
2022/03/02 05:32:10;;;;;;;45.05;28.60;;;;;;;;;;5072927;28;20047;-62
2022/03/02 05:34:36;;;;;;;43.17;28.50;;;;;;;;;;5072790;28;20385;-62
2022/03/02 05:37:03;;;;;;;44.70;29.50;;;;;;;;;;5072327;28;20040;-63
2022/03/02 05:39:29;;;;;;;42.90;28.38;;;;;;;;;;5072339;28;20231;-63
2022/03/02 05:41:56;;;;;;;44.45;29.15;;;;;;;;;;5071698;28;20429;-65
2022/03/02 05:44:22;;;;;;;40.00;27.15;;;;;;;;;;5071850;28;20032;-65
2022/03/02 05:46:48;;;;;;;45.78;29.75;;;;;;;;;;5072983;28;20505;-65
2022/03/02 05:49:15;;;;;;;43.22;28.75;;;;;;;;;;5072675;28;20493;-64
2022/03/02 05:51:41;;;;;;;43.08;28.73;;;;;;;;;;5072471;28;20063;-64
2022/03/02 05:54:10;;;;;;;40.30;27.10;;;;;;;;;;5072249;28;20135;-65
2022/03/02 05:56:37;;;;;;;43.30;28.35;;;;;;;;;;5072248;28;20044;-64
2022/03/02 05:59:08;;;;;;;41.78;27.55;;;;;;;;;;5071801;28;20105;-63
2022/03/02 06:01:34;;;;;;;41.90;28.02;;;;;;;;;;5075400;28;20035;-66
2022/03/02 06:04:01;;;;;;;46.35;30.02;;;;;;;;;;5071753;28;20044;-65
2022/03/02 06:06:29;;;;;;;44.50;29.50;;;;;;;;;;5072607;28;20055;-65
2022/03/02 06:08:55;;;;;;;46.17;29.52;;;;;;;;;;5072629;28;20037;-65
2022/03/02 06:11:22;;;;;;;41.17;27.25;;;;;;;;;;5072760;28;20032;-66
2022/03/02 06:13:48;;;;;;;44.05;29.38;;;;;;;;;;5071965;28;20036;-64
2022/03/02 06:16:15;;;;;;;45.60;29.48;;;;;;;;;;5071417;28;20121;-65
2022/03/02 06:18:41;;;;;;;44.40;27.63;;;;;;;;;;5063450;28;20459;-66
2022/03/02 06:21:08;;;;;;;43.22;29.13;;;;;;;;;;5072792;28;20466;-63
2022/03/02 06:23:34;;;;;;;45.25;28.30;;;;;;;;;;5070249;28;20440;-64
2022/03/02 06:26:01;;;;;;;41.50;27.85;;;;;;;;;;5061228;28;20402;-66
2022/03/02 06:28:27;;;;;;;47.65;29.92;;;;;;;;;;5032607;28;20032;-64
2022/03/02 06:30:53;;;;;;;45.15;28.45;;;;;;;;;;5073650;28;20481;-63
2022/03/02 06:33:21;;;;;;;44.83;29.45;;;;;;;;;;5059815;28;20090;-64
2022/03/02 06:35:48;;;;;;;45.58;28.05;;;;;;;;;;5090610;28;20036;-65
2022/03/02 06:38:14;;;;;;;44.80;29.63;;;;;;;;;;5093356;28;20050;-64
2022/03/02 06:40:42;;;;;;;44.90;29.00;;;;;;;;;;5075438;28;20044;-62
2022/03/02 06:43:18;;;;;;;42.38;28.63;;;;;;;;;;5073129;28;20408;-65
2022/03/02 06:46:01;;;;;;;49.60;29.85;;;;;;;;;;5091738;28;20455;-66
2022/03/02 06:48:47;;;;;;;45.17;29.73;;;;;;;;;;5090021;28;20533;-67
2022/03/02 06:51:15;;;;;;;44.30;28.20;;;;;;;;;;5058810;28;20032;-65
2022/03/02 06:53:44;;;;;;;40.17;27.75;;;;;;;;;;5071197;28;20044;-63
2022/03/02 06:56:10;;;;;;;45.67;28.23;;;;;;;;;;5062881;28;20063;-65
2022/03/02 06:58:48;;;;;;;42.05;27.27;;;;;;;;;;5038443;28;20103;-66
2022/03/02 07:01:17;;;;;;;48.53;28.85;;;;;;;;;;5070947;28;20408;-66
2022/03/02 07:03:47;;;;;;;43.72;27.85;;;;;;;;;;5058891;28;20158;-64
2022/03/02 07:06:13;;;;;;;41.08;27.77;;;;;;;;;;5085209;28;20485;-64
2022/03/02 07:08:41;;;;;;;41.83;27.60;;;;;;;;;;5070308;28;20115;-65
2022/03/02 07:11:07;;;;;;;40.33;27.23;;;;;;;;;;5096464;28;20125;-68
2022/03/02 07:13:34;;;;;;;43.60;28.02;;;;;;;;;;5077563;28;20063;-62
2022/03/02 07:16:00;;;;;;;40.70;26.10;;;;;;;;;;5091907;28;20037;-64
2022/03/02 07:18:27;;;;;;;41.55;27.23;;;;;;;;;;5060140;28;20579;-65
2022/03/02 07:20:56;;;;;;;47.92;28.08;;;;;;;;;;5056051;28;20045;-64
2022/03/02 07:23:23;;;;;;;47.22;28.77;;;;;;;;;;5056818;28;20045;-63
2022/03/02 07:25:50;;;;;;;41.45;27.17;;;;;;;;;;5077618;28;20079;-65
2022/03/02 07:28:16;;;;;;;43.30;27.30;;;;;;;;;;5076681;28;20465;-63
2022/03/02 07:30:44;;;;;;;41.17;26.90;;;;;;;;;;5074308;28;20048;-64
2022/03/02 07:33:10;;;;;;;41.67;26.90;;;;;;;;;;5073729;28;20040;-65
2022/03/02 07:35:37;;;;;;;42.22;26.58;;;;;;;;;;5074206;28;20040;-65
2022/03/02 07:38:04;;;;;;;40.00;27.48;;;;;;;;;;5074145;28;20052;-64
2022/03/02 07:40:30;;;;;;;40.83;26.33;;;;;;;;;;5073999;28;20147;-64
2022/03/02 07:42:57;;;;;;;39.80;26.85;;;;;;;;;;5073929;28;20119;-66
2022/03/02 07:45:23;;;;;;;42.95;27.50;;;;;;;;;;5075253;28;20397;-64
2022/03/02 07:47:50;;;;;;;40.08;27.60;;;;;;;;;;5055416;28;20047;-66
2022/03/02 07:50:16;;;;;;;40.55;26.98;;;;;;;;;;5074231;28;20443;-64
2022/03/02 07:52:53;;;;;;;38.22;25.27;;;;;;;;;;5073437;28;20048;-67
2022/03/02 07:55:19;;;;;;;44.05;28.25;;;;;;;;;;5074198;28;20055;-64
2022/03/02 07:57:51;;;;;;;39.75;25.98;;;;;;;;;;5073742;28;20082;-65
2022/03/02 08:00:17;;;;;;;39.60;27.15;;;;;;;;;;5073347;28;20045;-64
2022/03/02 08:02:43;;;;;;;40.45;26.45;;;;;;;;;;5073669;28;20174;-63
2022/03/02 08:05:10;;;;;;;39.88;25.25;;;;;;;;;;5073541;28;20055;-65
2022/03/02 08:07:36;;;;;;;42.67;27.40;;;;;;;;;;5073660;28;20508;-63
2022/03/02 08:10:03;;;;;;;36.28;24.85;;;;;;;;;;5073204;28;20036;-64
2022/03/02 08:12:29;;;;;;;38.47;26.77;;;;;;;;;;5072872;28;20520;-67
2022/03/02 08:14:56;;;;;;;39.42;24.50;;;;;;;;;;5073117;28;20051;-67
2022/03/02 08:17:22;;;;;;;37.38;24.45;;;;;;;;;;5073370;28;20052;-65
2022/03/02 08:19:48;;;;;;;36.58;23.52;;;;;;;;;;5084200;28;20043;-66
2022/03/02 08:22:17;;;;;;;38.08;22.95;;;;;;;;;;5093417;28;20055;-65
2022/03/02 08:24:45;;;;;;;30.77;21.92;;;;;;;;;;5092733;28;20093;-66
2022/03/02 08:27:13;;;;;;;32.10;21.95;;;;;;;;;;5054046;28;20033;-64
2022/03/02 08:29:39;;;;;;;31.92;21.42;;;;;;;;;;5052942;28;20045;-66
2022/03/02 08:32:06;;;;;;;32.03;21.05;;;;;;;;;;5053116;28;20036;-64
2022/03/02 08:34:33;;;;;;;31.25;22.33;;;;;;;;;;5053239;28;20071;-67
2022/03/02 08:36:59;;;;;;;30.38;21.75;;;;;;;;;;5052686;28;20544;-62
2022/03/02 08:39:26;;;;;;;31.52;21.27;;;;;;;;;;5052778;28;20041;-65
2022/03/02 08:41:52;;;;;;;29.83;21.42;;;;;;;;;;5052915;28;20052;-65
2022/03/02 08:44:20;;;;;;;30.10;21.85;;;;;;;;;;5053343;28;20045;-65
2022/03/02 08:46:46;;;;;;;29.70;21.33;;;;;;;;;;5052294;28;20033;-63
2022/03/02 08:49:13;;;;;;;28.52;21.38;;;;;;;;;;5056180;28;20086;-65
2022/03/02 08:51:39;;;;;;;27.55;21.20;;;;;;;;;;5072165;28;20488;-65
2022/03/02 08:54:06;;;;;;;28.15;21.20;;;;;;;;;;5072580;28;20072;-64
2022/03/02 08:56:37;;;;;;;29.77;22.13;;;;;;;;;;5072500;28;20051;-64
2022/03/02 08:59:04;;;;;;;28.58;21.20;;;;;;;;;;5072833;28;20050;-64
2022/03/02 09:01:31;;;;;;;26.85;21.83;;;;;;;;;;5072171;28;20053;-62
2022/03/02 09:03:59;;;;;;;27.42;22.45;;;;;;;;;;5071792;28;20115;-62
2022/03/02 09:06:27;;;;;;;28.98;21.55;;;;;;;;;;5072127;28;20047;-65
2022/03/02 09:08:55;;;;;;;26.70;21.25;;;;;;;;;;5072158;28;20083;-63
2022/03/02 09:11:21;;;;;;;25.20;19.65;;;;;;;;;;5072349;28;20041;-64
2022/03/02 09:13:49;;;;;;;27.67;20.08;;;;;;;;;;5072312;28;20044;-63
2022/03/02 09:16:16;;;;;;;22.80;19.92;;;;;;;;;;5071756;28;20404;-62
2022/03/02 09:18:42;;;;;;;23.85;19.55;;;;;;;;;;5072356;28;20040;-61
2022/03/02 09:21:09;;;;;;;25.25;18.23;;;;;;;;;;5072649;28;20040;-62
2022/03/02 09:23:38;;;;;;;25.23;19.48;;;;;;;;;;5072197;28;20040;-66
2022/03/02 09:26:09;;;;;;;24.95;18.85;;;;;;;;;;5068483;28;20039;-66
2022/03/02 09:28:36;;;;;;;23.42;18.40;;;;;;;;;;5074778;28;20111;-64
2022/03/02 09:31:07;;;;;;;23.00;17.92;;;;;;;;;;5071867;28;20496;-65
2022/03/02 09:33:34;;;;;;;21.13;17.40;;;;;;;;;;5068743;28;20040;-66
2022/03/02 09:36:04;;;;;;;22.70;17.98;;;;;;;;;;5083738;28;20075;-65
2022/03/02 09:38:32;;;;;;;25.05;18.40;;;;;;;;;;5092773;28;20488;-63
2022/03/02 09:41:00;;;;;;;22.63;18.02;;;;;;;;;;5065215;28;20512;-66
2022/03/02 09:43:27;;;;;;;20.98;17.08;;;;;;;;;;5050681;28;20131;-64
2022/03/02 09:45:57;;;;;;;19.02;17.02;;;;;;;;;;5066186;28;20036;-64
2022/03/02 09:48:31;;;;;;;21.13;17.15;;;;;;;;;;5067570;28;20314;-65
2022/03/02 09:50:59;;;;;;;20.23;16.17;;;;;;;;;;5066803;28;20028;-66
2022/03/02 09:53:27;;;;;;;19.60;16.48;;;;;;;;;;5058702;28;20446;-65
2022/03/02 09:55:56;;;;;;;18.90;16.10;;;;;;;;;;5073233;28;20400;-66
2022/03/02 09:58:22;;;;;;;19.52;16.58;;;;;;;;;;5076139;28;20039;-65
2022/03/02 10:00:48;;;;;;;21.83;16.85;;;;;;;;;;5069728;28;20041;-63
2022/03/02 10:03:18;;;;;;;18.77;16.73;;;;;;;;;;5051172;28;20056;-62
2022/03/02 10:05:45;;;;;;;20.88;16.80;;;;;;;;;;5053504;28;20417;-65
2022/03/02 10:08:11;;;;;;;19.13;16.20;;;;;;;;;;5071336;28;20036;-64
2022/03/02 10:10:39;;;;;;;20.08;17.90;;;;;;;;;;5071757;28;20120;-65
2022/03/02 10:13:09;;;;;;;18.77;16.67;;;;;;;;;;5071884;28;20119;-66
2022/03/02 10:15:36;;;;;;;20.63;17.48;;;;;;;;;;5072010;28;20115;-66
2022/03/02 10:18:03;;;;;;;19.77;17.15;;;;;;;;;;5071855;28;20446;-64
2022/03/02 10:20:34;;;;;;;20.67;17.40;;;;;;;;;;5071766;28;20408;-63
2022/03/02 10:23:21;;;;;;;20.75;16.88;;;;;;;;;;5071761;28;20083;-63
2022/03/02 10:25:47;;;;;;;23.10;16.50;;;;;;;;;;5072408;28;20033;-63
2022/03/02 10:28:16;;;;;;;20.83;17.05;;;;;;;;;;5072788;28;20072;-63
2022/03/02 10:30:43;;;;;;;21.67;17.75;;;;;;;;;;5075348;28;20041;-62
2022/03/02 10:33:12;;;;;;;20.75;16.85;;;;;;;;;;5075230;28;20051;-63
2022/03/02 10:35:41;;;;;;;21.08;16.80;;;;;;;;;;5075314;28;20041;-67
2022/03/02 10:38:08;;;;;;;19.40;17.30;;;;;;;;;;5076003;28;20040;-65
2022/03/02 10:40:37;;;;;;;21.10;16.67;;;;;;;;;;5075839;28;20393;-64
2022/03/02 10:43:05;;;;;;;18.95;16.95;;;;;;;;;;5075533;28;20045;-64
2022/03/02 10:45:42;;;;;;;21.42;17.65;;;;;;;;;;5075594;28;20097;-65
2022/03/02 10:48:11;;;;;;;18.58;16.50;;;;;;;;;;5075453;28;20417;-64
2022/03/02 10:50:38;;;;;;;19.67;17.17;;;;;;;;;;5075651;28;20417;-65
2022/03/02 10:53:07;;;;;;;21.20;16.48;;;;;;;;;;5075109;28;20044;-63
2022/03/02 10:55:34;;;;;;;19.45;16.80;;;;;;;;;;5075085;28;20493;-66
2022/03/02 10:58:01;;;;;;;23.05;16.60;;;;;;;;;;5075534;28;20449;-65
2022/03/02 11:00:27;;;;;;;21.42;16.70;;;;;;;;;;5075055;28;20040;-66
2022/03/02 11:02:57;;;;;;;18.52;16.05;;;;;;;;;;5075721;28;20186;-64
2022/03/02 11:05:24;;;;;;;17.65;15.75;;;;;;;;;;5075733;28;20522;-65
2022/03/02 11:07:50;;;;;;;19.08;17.05;;;;;;;;;;5074860;28;20078;-65
2022/03/02 11:10:18;;;;;;;20.65;17.15;;;;;;;;;;5063418;28;20485;-65
2022/03/02 11:12:44;;;;;;;19.15;16.33;;;;;;;;;;5054710;28;20037;-66
2022/03/02 11:15:11;;;;;;;19.65;17.42;;;;;;;;;;5063923;28;20044;-67
2022/03/02 11:17:50;;;;;;;18.92;16.50;;;;;;;;;;5080625;28;20043;-67
2022/03/02 11:20:16;;;;;;;17.90;15.98;;;;;;;;;;5095102;28;20429;-64
2022/03/02 11:22:50;;;;;;;19.73;17.52;;;;;;;;;;5094632;28;20565;-65
2022/03/02 11:25:16;;;;;;;18.35;16.23;;;;;;;;;;5095253;28;20032;-66
2022/03/02 11:27:42;;;;;;;19.05;17.05;;;;;;;;;;5094411;28;20488;-67
2022/03/02 11:30:09;;;;;;;18.40;16.45;;;;;;;;;;5094404;28;20539;-67
2022/03/02 11:32:36;;;;;;;19.05;17.02;;;;;;;;;;5093998;28;20051;-65
2022/03/02 11:35:03;;;;;;;18.92;16.60;;;;;;;;;;5094368;28;20054;-65
2022/03/02 11:37:33;;;;;;;19.58;17.00;;;;;;;;;;5094437;28;20071;-65
2022/03/02 11:40:00;;;;;;;20.05;16.88;;;;;;;;;;5093791;28;20048;-67
2022/03/02 11:42:30;;;;;;;18.52;16.55;;;;;;;;;;5093848;28;20044;-67
2022/03/02 11:44:57;;;;;;;18.33;16.15;;;;;;;;;;5065223;28;20074;-64
2022/03/02 11:47:24;;;;;;;18.92;17.05;;;;;;;;;;5076089;28;20036;-66
2022/03/02 11:49:51;;;;;;;17.83;15.93;;;;;;;;;;5095099;28;20040;-64
2022/03/02 11:52:18;;;;;;;17.60;15.40;;;;;;;;;;5094450;28;20062;-65
2022/03/02 11:54:45;;;;;;;18.05;16.15;;;;;;;;;;5093913;28;20492;-66
2022/03/02 11:57:13;;;;;;;17.27;15.40;;;;;;;;;;5093895;28;20441;-65
2022/03/02 11:59:39;;;;;;;18.80;16.90;;;;;;;;;;5093917;28;20044;-65
2022/03/02 12:02:13;;;;;;;18.50;16.63;;;;;;;;;;5093864;28;20085;-65
2022/03/02 12:04:40;;;;;;;17.92;16.02;;;;;;;;;;5093671;28;20521;-68
2022/03/02 12:07:08;;;;;;;18.13;15.60;;;;;;;;;;5093883;28;20111;-65
2022/03/02 12:09:34;;;;;;;18.27;16.17;;;;;;;;;;5094464;28;20059;-66
2022/03/02 12:12:26;;;;;;;17.38;15.20;;;;;;;;;;5094124;28;20035;-66
2022/03/02 12:14:56;;;;;;;16.92;15.23;;;;;;;;;;5084227;28;20503;-66
2022/03/02 12:17:28;;;;;;;20.55;15.70;;;;;;;;;;5066957;28;20494;-65
2022/03/02 12:20:06;;;;;;;17.98;15.95;;;;;;;;;;5073639;28;20040;-67
2022/03/02 12:22:32;;;;;;;17.70;15.65;;;;;;;;;;5073380;28;20067;-66
2022/03/02 12:24:58;;;;;;;17.55;15.52;;;;;;;;;;5073561;28;20051;-67
2022/03/02 12:27:25;;;;;;;17.13;15.32;;;;;;;;;;5073794;28;20037;-63
2022/03/02 12:29:56;;;;;;;19.48;15.68;;;;;;;;;;5073014;28;20115;-64
2022/03/02 12:32:22;;;;;;;17.45;15.65;;;;;;;;;;5073429;28;20079;-66
2022/03/02 12:34:52;;;;;;;16.90;15.20;;;;;;;;;;5073260;28;20098;-66
2022/03/02 12:37:19;;;;;;;17.90;15.65;;;;;;;;;;5072643;28;20045;-66
2022/03/02 12:39:45;;;;;;;17.33;15.43;;;;;;;;;;5072687;28;20090;-65
2022/03/02 12:42:11;;;;;;;16.83;15.05;;;;;;;;;;5072207;28;20146;-66
2022/03/02 12:44:39;;;;;;;17.17;15.25;;;;;;;;;;5072867;28;20036;-64
2022/03/02 12:47:08;;;;;;;16.80;15.10;;;;;;;;;;5072816;28;20040;-64
2022/03/02 12:49:35;;;;;;;18.60;15.50;;;;;;;;;;5073793;28;20477;-67
2022/03/02 12:52:01;;;;;;;17.23;15.48;;;;;;;;;;5069461;28;20055;-65
2022/03/02 12:54:29;;;;;;;19.48;15.63;;;;;;;;;;5065804;28;20044;-67
2022/03/02 12:56:56;;;;;;;16.98;15.15;;;;;;;;;;5065876;28;20048;-65
2022/03/02 12:59:22;;;;;;;16.52;14.80;;;;;;;;;;5062756;28;20449;-66
2022/03/02 13:01:48;;;;;;;16.20;14.55;;;;;;;;;;5066562;28;20036;-67
2022/03/02 13:04:17;;;;;;;16.08;14.38;;;;;;;;;;5067183;28;20577;-66
2022/03/02 13:06:51;;;;;;;15.75;14.10;;;;;;;;;;5060607;28;20494;-66
2022/03/02 13:09:20;;;;;;;15.15;13.57;;;;;;;;;;5062314;28;20033;-66
2022/03/02 13:11:46;;;;;;;15.30;13.73;;;;;;;;;;5064976;28;20037;-66
2022/03/02 13:14:31;;;;;;;15.65;14.05;;;;;;;;;;5065910;28;20093;-66
2022/03/02 13:17:13;;;;;;;17.17;15.30;;;;;;;;;;5047169;28;20044;-65
2022/03/02 13:19:44;;;;;;;16.40;14.80;;;;;;;;;;5073354;28;20067;-67
2022/03/02 13:22:16;;;;;;;16.17;14.60;;;;;;;;;;5065964;28;20037;-67
2022/03/02 13:24:47;;;;;;;15.48;13.80;;;;;;;;;;5066020;28;20367;-66
2022/03/02 13:27:15;;;;;;;14.60;13.10;;;;;;;;;;5060374;28;20032;-66
2022/03/02 13:29:58;;;;;;;14.80;13.30;;;;;;;;;;5059765;28;20112;-67
2022/03/02 13:32:44;;;;;;;14.77;13.38;;;;;;;;;;5042090;28;20106;-65
2022/03/02 13:35:12;;;;;;;14.98;13.38;;;;;;;;;;5074940;28;20435;-65
2022/03/02 13:37:54;;;;;;;15.15;13.65;;;;;;;;;;5073403;28;20043;-65
2022/03/02 13:40:32;;;;;;;17.30;14.47;;;;;;;;;;5072795;28;20876;-65
2022/03/02 13:43:18;;;;;;;16.15;14.50;;;;;;;;;;5072247;28;20048;-64
2022/03/02 13:45:46;;;;;;;15.68;14.07;;;;;;;;;;5071751;28;20040;-65
2022/03/02 13:48:12;;;;;;;16.10;14.50;;;;;;;;;;5065305;28;20091;-66
2022/03/02 13:50:56;;;;;;;14.93;13.27;;;;;;;;;;5067010;28;20037;-66
2022/03/02 13:53:36;;;;;;;18.17;13.45;;;;;;;;;;5057351;28;20037;-66
2022/03/02 13:56:07;;;;;;;14.00;12.70;;;;;;;;;;5058254;28;20079;-66
2022/03/02 13:58:34;;;;;;;14.68;13.20;;;;;;;;;;5060777;28;20525;-65
2022/03/02 14:01:20;;;;;;;15.60;13.93;;;;;;;;;;5072513;28;20059;-65
2022/03/02 14:03:49;;;;;;;13.63;12.15;;;;;;;;;;5072020;28;20052;-66
2022/03/02 14:06:16;;;;;;;14.55;13.10;;;;;;;;;;5071957;28;20120;-65
2022/03/02 14:08:46;;;;;;;14.13;12.60;;;;;;;;;;5072368;28;20043;-66
2022/03/02 14:11:31;;;;;;;14.80;13.27;;;;;;;;;;5075795;28;20036;-65
2022/03/02 14:13:57;;;;;;;13.60;12.30;;;;;;;;;;5067010;28;20084;-66
2022/03/02 14:16:23;;;;;;;14.15;12.82;;;;;;;;;;5070555;28;20040;-66
2022/03/02 14:19:03;;;;;;;13.48;12.10;;;;;;;;;;5048002;28;20043;-65